Startpagina
METAR-TAF:

METAR-TAF

Vliegvelden :

Internationale luchthaven Tan Son Nhat

Ho Chi Minhstad, Vietnam

breedte: 10-49N, lengte: 106-40E, hoogte: 19 m

Actueel weer

Dit bericht is 44 minuten geleden gemaakt, om 20:30 UTC
Wind 1 kt uit het oostnoordoosten
Temperatuur 27°C
Vochtigheid 100%
Druk 1007 hPa
Zicht: 8000 m
Weinig wolken op 2000 ft
Verspreide wolken op 5000 ft

METAR: VVTS 232030Z 06001KT 8000 FEW020 SCT050 27/27 Q1007 NOSIG

Tijdstip: 04:14 (21:14 UTC)

Verwachting

Dit bericht is 4 uur en het 14 minuten geleden gemaakt, om 17:00 UTC
Verwachting geldig van 23 om 18 UTC tot 24 om 24 UTC
Wind 3 kt uit variabele richting
Zicht 10 km of meer
Verspreide wolken op 1700 ft
Tijdelijke
van 24 om 05 UTC tot 24 om 10 UTC
Wind 15 kt uit het westzuidwesten met uitschieters tot 27 kt
Zicht: 3000 m
Verspreide wolken op 1500 ft
Verspreide wolken op 1700 ft, Cumulonimbus.
onweer, regen,

TAF: VVTS 231700Z 2318/2424 VRB03KT 9999 SCT017 TEMPO 2405/2410 25015G27KT 3000 TSRA SCT015 SCT017CB

Waarnemingen en weersverwachtingen van meer dan 4000 vliegvelden (METAR en TAF).

De beschikbare stations zijn de gele en rode punten op de kaart.

Ga met uw muis naar het station om de naam te zien.

Klik dan om waarnemingen en weersverwachtingen te zien.

kaart wijzigen: klik op de groene knoppen met een zwart kruis om in te zoomen, op de groene knop met een streepje om uit te zoomen of op de groene pijlen voor aangrenzende kaarten.


METAR-TAF: